sensor_id;sensor_type;location;lat;lon;timestamp;P1;durP1;ratioP1;P2;durP2;ratioP2
50126;SDS011;36024;47.974;16.398;2023-12-29T00:00:48;12.07;;;10.77;;
50126;SDS011;36024;47.974;16.398;2023-12-29T00:03:16;12.57;;;10.90;;
50126;SDS011;36024;47.974;16.398;2023-12-29T00:05:43;13.03;;;11.13;;
50126;SDS011;36024;47.974;16.398;2023-12-29T00:08:10;12.63;;;11.03;;
50126;SDS011;36024;47.974;16.398;2023-12-29T00:10:36;12.13;;;10.77;;
50126;SDS011;36024;47.974;16.398;2023-12-29T00:13:03;11.57;;;10.37;;
50126;SDS011;36024;47.974;16.398;2023-12-29T00:15:30;11.83;;;10.63;;
50126;SDS011;36024;47.974;16.398;2023-12-29T00:17:57;12.47;;;10.97;;
50126;SDS011;36024;47.974;16.398;2023-12-29T00:20:25;12.90;;;10.70;;
50126;SDS011;36024;47.974;16.398;2023-12-29T00:23:06;11.77;;;10.00;;
50126;SDS011;36024;47.974;16.398;2023-12-29T00:25:35;13.30;;;11.27;;
50126;SDS011;36024;47.974;16.398;2023-12-29T00:28:03;15.57;;;12.30;;
50126;SDS011;36024;47.974;16.398;2023-12-29T00:30:31;15.47;;;12.90;;
50126;SDS011;36024;47.974;16.398;2023-12-29T00:33:17;13.90;;;11.43;;
50126;SDS011;36024;47.974;16.398;2023-12-29T00:35:44;16.27;;;12.70;;
50126;SDS011;36024;47.974;16.398;2023-12-29T00:38:11;12.53;;;10.90;;
50126;SDS011;36024;47.974;16.398;2023-12-29T00:40:38;11.83;;;10.47;;
50126;SDS011;36024;47.974;16.398;2023-12-29T00:43:05;11.43;;;9.97;;
50126;SDS011;36024;47.974;16.398;2023-12-29T00:45:32;12.07;;;10.53;;
50126;SDS011;36024;47.974;16.398;2023-12-29T00:48:02;11.43;;;9.53;;
50126;SDS011;36024;47.974;16.398;2023-12-29T00:50:30;11.63;;;9.97;;
50126;SDS011;36024;47.974;16.398;2023-12-29T00:52:57;13.03;;;10.63;;
50126;SDS011;36024;47.974;16.398;2023-12-29T00:55:24;11.83;;;10.57;;
50126;SDS011;36024;47.974;16.398;2023-12-29T00:57:50;13.20;;;10.57;;
50126;SDS011;36024;47.974;16.398;2023-12-29T01:00:17;11.63;;;10.27;;
50126;SDS011;36024;47.974;16.398;2023-12-29T01:02:44;16.73;;;15.03;;
50126;SDS011;36024;47.974;16.398;2023-12-29T01:05:15;12.40;;;11.10;;
50126;SDS011;36024;47.974;16.398;2023-12-29T01:07:44;13.60;;;11.17;;
50126;SDS011;36024;47.974;16.398;2023-12-29T01:10:11;13.60;;;11.43;;
50126;SDS011;36024;47.974;16.398;2023-12-29T01:12:38;12.83;;;10.83;;
50126;SDS011;36024;47.974;16.398;2023-12-29T01:15:05;12.30;;;10.60;;
50126;SDS011;36024;47.974;16.398;2023-12-29T01:17:32;12.30;;;10.93;;
50126;SDS011;36024;47.974;16.398;2023-12-29T01:19:59;12.10;;;10.23;;
50126;SDS011;36024;47.974;16.398;2023-12-29T01:22:26;13.27;;;11.37;;
50126;SDS011;36024;47.974;16.398;2023-12-29T01:24:53;12.73;;;10.77;;
50126;SDS011;36024;47.974;16.398;2023-12-29T01:27:20;12.23;;;10.80;;
50126;SDS011;36024;47.974;16.398;2023-12-29T01:29:47;12.50;;;10.87;;
50126;SDS011;36024;47.974;16.398;2023-12-29T01:32:14;13.00;;;10.93;;
50126;SDS011;36024;47.974;16.398;2023-12-29T01:34:40;12.53;;;10.73;;
50126;SDS011;36024;47.974;16.398;2023-12-29T01:37:08;12.20;;;10.23;;
50126;SDS011;36024;47.974;16.398;2023-12-29T01:39:36;12.33;;;10.33;;
50126;SDS011;36024;47.974;16.398;2023-12-29T01:42:03;13.60;;;11.40;;
50126;SDS011;36024;47.974;16.398;2023-12-29T01:44:30;13.40;;;11.67;;
50126;SDS011;36024;47.974;16.398;2023-12-29T01:47:00;13.40;;;10.83;;
50126;SDS011;36024;47.974;16.398;2023-12-29T01:49:27;11.90;;;9.83;;
50126;SDS011;36024;47.974;16.398;2023-12-29T01:51:58;11.83;;;10.37;;
50126;SDS011;36024;47.974;16.398;2023-12-29T01:54:36;11.43;;;10.07;;
50126;SDS011;36024;47.974;16.398;2023-12-29T01:57:07;10.97;;;9.47;;
50126;SDS011;36024;47.974;16.398;2023-12-29T01:59:35;11.40;;;9.83;;
50126;SDS011;36024;47.974;16.398;2023-12-29T02:02:04;11.83;;;10.63;;
50126;SDS011;36024;47.974;16.398;2023-12-29T02:04:31;12.63;;;11.30;;
50126;SDS011;36024;47.974;16.398;2023-12-29T02:06:59;14.83;;;11.80;;
50126;SDS011;36024;47.974;16.398;2023-12-29T02:09:26;16.77;;;13.17;;
50126;SDS011;36024;47.974;16.398;2023-12-29T02:11:54;15.27;;;13.00;;
50126;SDS011;36024;47.974;16.398;2023-12-29T02:14:21;19.30;;;14.87;;
50126;SDS011;36024;47.974;16.398;2023-12-29T02:22:10;15.77;;;12.67;;
50126;SDS011;36024;47.974;16.398;2023-12-29T02:24:37;15.30;;;12.73;;
50126;SDS011;36024;47.974;16.398;2023-12-29T02:27:07;18.13;;;13.80;;
50126;SDS011;36024;47.974;16.398;2023-12-29T02:32:48;12.80;;;11.50;;
50126;SDS011;36024;47.974;16.398;2023-12-29T02:35:21;14.17;;;11.37;;
50126;SDS011;36024;47.974;16.398;2023-12-29T02:37:52;12.73;;;11.20;;
50126;SDS011;36024;47.974;16.398;2023-12-29T02:40:19;12.70;;;10.87;;
50126;SDS011;36024;47.974;16.398;2023-12-29T02:42:46;12.67;;;11.37;;
50126;SDS011;36024;47.974;16.398;2023-12-29T02:45:17;12.07;;;10.50;;
50126;SDS011;36024;47.974;16.398;2023-12-29T02:47:44;12.77;;;10.60;;
50126;SDS011;36024;47.974;16.398;2023-12-29T02:50:11;11.73;;;10.50;;
50126;SDS011;36024;47.974;16.398;2023-12-29T02:52:38;11.90;;;10.33;;
50126;SDS011;36024;47.974;16.398;2023-12-29T02:55:05;11.60;;;10.40;;
50126;SDS011;36024;47.974;16.398;2023-12-29T02:57:32;12.47;;;10.13;;
50126;SDS011;36024;47.974;16.398;2023-12-29T03:00:00;12.27;;;10.23;;
50126;SDS011;36024;47.974;16.398;2023-12-29T03:02:27;12.73;;;10.07;;
50126;SDS011;36024;47.974;16.398;2023-12-29T03:04:54;13.50;;;11.70;;
50126;SDS011;36024;47.974;16.398;2023-12-29T03:07:20;13.07;;;10.53;;
50126;SDS011;36024;47.974;16.398;2023-12-29T03:09:47;11.27;;;9.53;;
50126;SDS011;36024;47.974;16.398;2023-12-29T03:12:14;11.17;;;9.53;;
50126;SDS011;36024;47.974;16.398;2023-12-29T03:14:41;10.63;;;9.20;;
50126;SDS011;36024;47.974;16.398;2023-12-29T03:17:08;12.33;;;10.40;;
50126;SDS011;36024;47.974;16.398;2023-12-29T03:19:35;12.00;;;9.87;;
50126;SDS011;36024;47.974;16.398;2023-12-29T03:22:02;11.87;;;9.23;;
50126;SDS011;36024;47.974;16.398;2023-12-29T03:24:29;11.37;;;9.73;;
50126;SDS011;36024;47.974;16.398;2023-12-29T03:26:57;11.63;;;9.70;;
50126;SDS011;36024;47.974;16.398;2023-12-29T03:29:24;11.17;;;9.50;;
50126;SDS011;36024;47.974;16.398;2023-12-29T03:31:52;10.87;;;9.20;;
50126;SDS011;36024;47.974;16.398;2023-12-29T03:34:19;10.87;;;8.60;;
50126;SDS011;36024;47.974;16.398;2023-12-29T03:36:47;11.57;;;9.37;;
50126;SDS011;36024;47.974;16.398;2023-12-29T03:39:14;11.50;;;9.53;;
50126;SDS011;36024;47.974;16.398;2023-12-29T03:41:41;10.33;;;9.23;;
50126;SDS011;36024;47.974;16.398;2023-12-29T03:44:08;11.87;;;9.23;;
50126;SDS011;36024;47.974;16.398;2023-12-29T03:46:35;10.90;;;9.10;;
50126;SDS011;36024;47.974;16.398;2023-12-29T03:49:02;10.57;;;8.63;;
50126;SDS011;36024;47.974;16.398;2023-12-29T03:51:29;10.53;;;8.90;;
50126;SDS011;36024;47.974;16.398;2023-12-29T03:53:56;10.30;;;8.43;;
50126;SDS011;36024;47.974;16.398;2023-12-29T03:56:25;9.73;;;8.13;;
50126;SDS011;36024;47.974;16.398;2023-12-29T03:58:52;8.97;;;7.73;;
50126;SDS011;36024;47.974;16.398;2023-12-29T04:01:19;10.47;;;9.03;;
50126;SDS011;36024;47.974;16.398;2023-12-29T04:03:46;9.43;;;8.07;;
50126;SDS011;36024;47.974;16.398;2023-12-29T04:06:13;9.30;;;8.30;;
50126;SDS011;36024;47.974;16.398;2023-12-29T04:08:40;9.33;;;8.30;;
50126;SDS011;36024;47.974;16.398;2023-12-29T04:11:07;9.80;;;8.10;;
50126;SDS011;36024;47.974;16.398;2023-12-29T04:13:34;9.83;;;8.23;;
50126;SDS011;36024;47.974;16.398;2023-12-29T04:16:01;11.37;;;9.43;;
50126;SDS011;36024;47.974;16.398;2023-12-29T04:18:28;10.50;;;8.27;;
50126;SDS011;36024;47.974;16.398;2023-12-29T04:20:56;8.57;;;7.67;;
50126;SDS011;36024;47.974;16.398;2023-12-29T04:23:22;8.30;;;7.23;;
50126;SDS011;36024;47.974;16.398;2023-12-29T04:25:49;8.23;;;7.20;;
50126;SDS011;36024;47.974;16.398;2023-12-29T04:28:16;8.80;;;7.00;;
50126;SDS011;36024;47.974;16.398;2023-12-29T04:30:43;7.80;;;7.00;;
50126;SDS011;36024;47.974;16.398;2023-12-29T04:33:11;8.10;;;6.97;;
50126;SDS011;36024;47.974;16.398;2023-12-29T04:35:37;8.43;;;7.40;;
50126;SDS011;36024;47.974;16.398;2023-12-29T04:38:04;7.87;;;7.07;;
50126;SDS011;36024;47.974;16.398;2023-12-29T04:40:35;8.90;;;7.50;;
50126;SDS011;36024;47.974;16.398;2023-12-29T04:43:02;8.60;;;7.43;;
50126;SDS011;36024;47.974;16.398;2023-12-29T04:45:29;10.27;;;8.40;;
50126;SDS011;36024;47.974;16.398;2023-12-29T04:47:56;9.47;;;8.40;;
50126;SDS011;36024;47.974;16.398;2023-12-29T04:50:23;9.20;;;7.93;;
50126;SDS011;36024;47.974;16.398;2023-12-29T04:52:50;8.70;;;7.80;;
50126;SDS011;36024;47.974;16.398;2023-12-29T04:55:17;8.57;;;7.67;;
50126;SDS011;36024;47.974;16.398;2023-12-29T04:57:44;9.70;;;7.87;;
50126;SDS011;36024;47.974;16.398;2023-12-29T05:00:12;7.97;;;7.17;;
50126;SDS011;36024;47.974;16.398;2023-12-29T05:02:40;8.80;;;7.90;;
50126;SDS011;36024;47.974;16.398;2023-12-29T05:05:07;9.30;;;7.80;;
50126;SDS011;36024;47.974;16.398;2023-12-29T05:07:34;13.50;;;10.23;;
50126;SDS011;36024;47.974;16.398;2023-12-29T05:10:01;12.83;;;9.40;;
50126;SDS011;36024;47.974;16.398;2023-12-29T05:12:27;16.43;;;10.70;;
50126;SDS011;36024;47.974;16.398;2023-12-29T05:14:54;13.00;;;9.70;;
50126;SDS011;36024;47.974;16.398;2023-12-29T05:17:21;12.87;;;9.87;;
50126;SDS011;36024;47.974;16.398;2023-12-29T05:19:48;12.70;;;9.90;;
50126;SDS011;36024;47.974;16.398;2023-12-29T05:22:15;12.57;;;9.07;;
50126;SDS011;36024;47.974;16.398;2023-12-29T05:24:44;9.97;;;8.07;;
50126;SDS011;36024;47.974;16.398;2023-12-29T05:27:11;10.43;;;8.53;;
50126;SDS011;36024;47.974;16.398;2023-12-29T05:29:38;10.27;;;7.67;;
50126;SDS011;36024;47.974;16.398;2023-12-29T05:32:06;8.60;;;7.07;;
50126;SDS011;36024;47.974;16.398;2023-12-29T05:34:33;7.90;;;7.10;;
50126;SDS011;36024;47.974;16.398;2023-12-29T05:37:00;7.90;;;6.73;;
50126;SDS011;36024;47.974;16.398;2023-12-29T05:39:27;7.70;;;6.17;;
50126;SDS011;36024;47.974;16.398;2023-12-29T05:41:55;7.73;;;6.87;;
50126;SDS011;36024;47.974;16.398;2023-12-29T05:44:22;7.83;;;6.80;;
50126;SDS011;36024;47.974;16.398;2023-12-29T05:46:49;7.63;;;6.80;;
50126;SDS011;36024;47.974;16.398;2023-12-29T05:49:16;8.30;;;7.10;;
50126;SDS011;36024;47.974;16.398;2023-12-29T05:51:44;7.90;;;6.37;;
50126;SDS011;36024;47.974;16.398;2023-12-29T05:54:11;6.53;;;5.73;;
50126;SDS011;36024;47.974;16.398;2023-12-29T05:56:38;8.00;;;7.20;;
50126;SDS011;36024;47.974;16.398;2023-12-29T05:59:04;7.80;;;6.53;;
50126;SDS011;36024;47.974;16.398;2023-12-29T06:01:31;9.23;;;7.57;;
50126;SDS011;36024;47.974;16.398;2023-12-29T06:03:58;8.70;;;7.37;;
50126;SDS011;36024;47.974;16.398;2023-12-29T06:06:25;8.83;;;7.77;;
50126;SDS011;36024;47.974;16.398;2023-12-29T06:08:52;8.20;;;7.07;;
50126;SDS011;36024;47.974;16.398;2023-12-29T06:11:19;8.87;;;6.90;;
50126;SDS011;36024;47.974;16.398;2023-12-29T06:13:45;9.53;;;7.47;;
50126;SDS011;36024;47.974;16.398;2023-12-29T06:16:19;8.07;;;7.03;;
50126;SDS011;36024;47.974;16.398;2023-12-29T06:18:47;10.13;;;7.00;;
50126;SDS011;36024;47.974;16.398;2023-12-29T06:21:14;7.63;;;6.70;;
50126;SDS011;36024;47.974;16.398;2023-12-29T06:23:41;7.90;;;6.70;;
50126;SDS011;36024;47.974;16.398;2023-12-29T06:26:17;7.97;;;6.43;;
50126;SDS011;36024;47.974;16.398;2023-12-29T06:28:45;7.70;;;6.17;;
50126;SDS011;36024;47.974;16.398;2023-12-29T06:31:12;5.93;;;5.33;;
50126;SDS011;36024;47.974;16.398;2023-12-29T06:33:43;6.07;;;4.93;;
50126;SDS011;36024;47.974;16.398;2023-12-29T06:36:10;5.90;;;5.30;;
50126;SDS011;36024;47.974;16.398;2023-12-29T06:38:37;6.20;;;4.70;;
50126;SDS011;36024;47.974;16.398;2023-12-29T06:41:04;4.70;;;4.03;;
50126;SDS011;36024;47.974;16.398;2023-12-29T06:43:31;3.93;;;3.53;;
50126;SDS011;36024;47.974;16.398;2023-12-29T06:46:00;3.90;;;3.50;;
50126;SDS011;36024;47.974;16.398;2023-12-29T06:48:27;3.73;;;3.33;;
50126;SDS011;36024;47.974;16.398;2023-12-29T06:50:54;3.10;;;2.73;;
50126;SDS011;36024;47.974;16.398;2023-12-29T06:53:21;4.10;;;2.70;;
50126;SDS011;36024;47.974;16.398;2023-12-29T06:55:48;4.03;;;2.80;;
50126;SDS011;36024;47.974;16.398;2023-12-29T06:58:16;2.50;;;2.30;;
50126;SDS011;36024;47.974;16.398;2023-12-29T07:00:43;3.70;;;2.93;;
50126;SDS011;36024;47.974;16.398;2023-12-29T07:03:12;3.23;;;2.80;;
50126;SDS011;36024;47.974;16.398;2023-12-29T07:05:41;3.40;;;2.87;;
50126;SDS011;36024;47.974;16.398;2023-12-29T07:08:08;3.60;;;3.00;;
50126;SDS011;36024;47.974;16.398;2023-12-29T07:10:35;4.80;;;3.20;;
50126;SDS011;36024;47.974;16.398;2023-12-29T07:13:01;3.67;;;3.00;;
50126;SDS011;36024;47.974;16.398;2023-12-29T07:15:28;3.80;;;3.50;;
50126;SDS011;36024;47.974;16.398;2023-12-29T07:17:55;3.77;;;3.30;;
50126;SDS011;36024;47.974;16.398;2023-12-29T07:20:22;4.43;;;3.83;;
50126;SDS011;36024;47.974;16.398;2023-12-29T07:22:49;4.10;;;3.40;;
50126;SDS011;36024;47.974;16.398;2023-12-29T07:25:16;5.40;;;3.83;;
50126;SDS011;36024;47.974;16.398;2023-12-29T07:27:43;4.10;;;3.70;;
50126;SDS011;36024;47.974;16.398;2023-12-29T07:30:10;5.20;;;3.97;;
50126;SDS011;36024;47.974;16.398;2023-12-29T07:32:37;4.43;;;4.03;;
50126;SDS011;36024;47.974;16.398;2023-12-29T07:35:04;4.60;;;3.63;;
50126;SDS011;36024;47.974;16.398;2023-12-29T07:37:31;4.90;;;4.17;;
50126;SDS011;36024;47.974;16.398;2023-12-29T07:39:58;4.17;;;3.50;;
50126;SDS011;36024;47.974;16.398;2023-12-29T07:42:25;3.90;;;3.50;;
50126;SDS011;36024;47.974;16.398;2023-12-29T07:44:52;3.70;;;3.30;;
50126;SDS011;36024;47.974;16.398;2023-12-29T07:47:21;4.30;;;3.50;;
50126;SDS011;36024;47.974;16.398;2023-12-29T07:49:48;3.63;;;3.30;;
50126;SDS011;36024;47.974;16.398;2023-12-29T07:52:15;3.03;;;2.73;;
50126;SDS011;36024;47.974;16.398;2023-12-29T07:54:42;3.10;;;2.60;;
50126;SDS011;36024;47.974;16.398;2023-12-29T07:57:09;3.77;;;2.87;;
50126;SDS011;36024;47.974;16.398;2023-12-29T07:59:35;2.90;;;2.53;;
50126;SDS011;36024;47.974;16.398;2023-12-29T08:02:02;3.47;;;2.40;;
50126;SDS011;36024;47.974;16.398;2023-12-29T08:04:29;3.33;;;2.60;;
50126;SDS011;36024;47.974;16.398;2023-12-29T08:06:56;3.10;;;2.47;;
50126;SDS011;36024;47.974;16.398;2023-12-29T08:09:23;2.87;;;2.20;;
50126;SDS011;36024;47.974;16.398;2023-12-29T08:11:50;3.27;;;2.40;;
50126;SDS011;36024;47.974;16.398;2023-12-29T08:14:16;7.03;;;4.07;;
50126;SDS011;36024;47.974;16.398;2023-12-29T08:16:43;5.73;;;3.73;;
50126;SDS011;36024;47.974;16.398;2023-12-29T08:19:10;6.17;;;4.30;;
50126;SDS011;36024;47.974;16.398;2023-12-29T08:21:37;2.80;;;2.30;;
50126;SDS011;36024;47.974;16.398;2023-12-29T08:24:04;2.23;;;1.70;;
50126;SDS011;36024;47.974;16.398;2023-12-29T08:26:31;3.73;;;2.27;;
50126;SDS011;36024;47.974;16.398;2023-12-29T08:28:58;3.60;;;3.00;;
50126;SDS011;36024;47.974;16.398;2023-12-29T08:31:25;4.10;;;2.40;;
50126;SDS011;36024;47.974;16.398;2023-12-29T08:33:53;3.43;;;2.87;;
50126;SDS011;36024;47.974;16.398;2023-12-29T08:36:20;3.13;;;2.80;;
50126;SDS011;36024;47.974;16.398;2023-12-29T08:38:47;3.00;;;2.80;;
50126;SDS011;36024;47.974;16.398;2023-12-29T08:41:14;3.17;;;2.87;;
50126;SDS011;36024;47.974;16.398;2023-12-29T08:43:41;3.00;;;2.33;;
50126;SDS011;36024;47.974;16.398;2023-12-29T08:46:08;3.53;;;2.43;;
50126;SDS011;36024;47.974;16.398;2023-12-29T08:48:35;3.27;;;2.53;;
50126;SDS011;36024;47.974;16.398;2023-12-29T08:51:02;2.70;;;2.50;;
50126;SDS011;36024;47.974;16.398;2023-12-29T08:53:29;3.13;;;2.43;;
50126;SDS011;36024;47.974;16.398;2023-12-29T08:56:00;2.67;;;2.30;;
50126;SDS011;36024;47.974;16.398;2023-12-29T08:58:27;2.70;;;2.30;;
50126;SDS011;36024;47.974;16.398;2023-12-29T09:00:55;2.50;;;2.30;;
50126;SDS011;36024;47.974;16.398;2023-12-29T09:03:22;2.50;;;2.30;;
50126;SDS011;36024;47.974;16.398;2023-12-29T09:05:49;3.67;;;2.80;;
50126;SDS011;36024;47.974;16.398;2023-12-29T09:08:15;2.50;;;2.30;;
50126;SDS011;36024;47.974;16.398;2023-12-29T09:10:42;3.77;;;2.60;;
50126;SDS011;36024;47.974;16.398;2023-12-29T09:13:09;4.07;;;3.20;;
50126;SDS011;36024;47.974;16.398;2023-12-29T09:15:36;3.67;;;2.90;;
50126;SDS011;36024;47.974;16.398;2023-12-29T09:18:04;3.60;;;2.90;;
50126;SDS011;36024;47.974;16.398;2023-12-29T09:20:31;2.70;;;2.50;;
50126;SDS011;36024;47.974;16.398;2023-12-29T09:22:58;2.30;;;2.10;;
50126;SDS011;36024;47.974;16.398;2023-12-29T09:25:26;3.23;;;2.30;;
50126;SDS011;36024;47.974;16.398;2023-12-29T09:27:53;3.23;;;2.30;;
50126;SDS011;36024;47.974;16.398;2023-12-29T09:30:20;2.80;;;2.60;;
50126;SDS011;36024;47.974;16.398;2023-12-29T09:32:47;3.43;;;3.00;;
50126;SDS011;36024;47.974;16.398;2023-12-29T09:35:14;3.03;;;2.73;;
50126;SDS011;36024;47.974;16.398;2023-12-29T09:37:40;3.57;;;2.63;;
50126;SDS011;36024;47.974;16.398;2023-12-29T09:40:08;3.07;;;2.70;;
50126;SDS011;36024;47.974;16.398;2023-12-29T09:42:37;3.53;;;3.23;;
50126;SDS011;36024;47.974;16.398;2023-12-29T09:45:06;3.37;;;3.07;;
50126;SDS011;36024;47.974;16.398;2023-12-29T09:47:35;5.43;;;2.80;;
50126;SDS011;36024;47.974;16.398;2023-12-29T09:50:12;3.23;;;2.93;;
50126;SDS011;36024;47.974;16.398;2023-12-29T09:52:40;3.20;;;2.90;;
50126;SDS011;36024;47.974;16.398;2023-12-29T09:55:10;3.07;;;2.77;;
50126;SDS011;36024;47.974;16.398;2023-12-29T09:57:38;3.10;;;2.80;;
50126;SDS011;36024;47.974;16.398;2023-12-29T10:00:07;3.70;;;3.03;;
50126;SDS011;36024;47.974;16.398;2023-12-29T10:02:37;3.73;;;2.83;;
50126;SDS011;36024;47.974;16.398;2023-12-29T10:05:04;3.50;;;2.93;;
50126;SDS011;36024;47.974;16.398;2023-12-29T10:07:36;3.10;;;2.90;;
50126;SDS011;36024;47.974;16.398;2023-12-29T10:10:05;3.20;;;2.90;;
50126;SDS011;36024;47.974;16.398;2023-12-29T10:12:33;3.00;;;2.70;;
50126;SDS011;36024;47.974;16.398;2023-12-29T10:15:05;3.40;;;2.80;;
50126;SDS011;36024;47.974;16.398;2023-12-29T10:17:41;3.40;;;3.10;;
50126;SDS011;36024;47.974;16.398;2023-12-29T10:22:48;3.93;;;3.33;;
50126;SDS011;36024;47.974;16.398;2023-12-29T10:25:18;3.33;;;2.97;;
50126;SDS011;36024;47.974;16.398;2023-12-29T10:27:46;4.27;;;3.87;;
50126;SDS011;36024;47.974;16.398;2023-12-29T10:30:13;3.37;;;3.00;;
50126;SDS011;36024;47.974;16.398;2023-12-29T10:32:53;3.50;;;3.20;;
50126;SDS011;36024;47.974;16.398;2023-12-29T10:35:20;3.13;;;2.83;;
50126;SDS011;36024;47.974;16.398;2023-12-29T10:37:48;3.77;;;3.20;;
50126;SDS011;36024;47.974;16.398;2023-12-29T10:40:18;4.13;;;3.50;;
50126;SDS011;36024;47.974;16.398;2023-12-29T10:42:54;5.20;;;3.90;;
50126;SDS011;36024;47.974;16.398;2023-12-29T10:45:22;2.70;;;2.50;;
50126;SDS011;36024;47.974;16.398;2023-12-29T10:47:51;3.00;;;2.70;;
50126;SDS011;36024;47.974;16.398;2023-12-29T10:50:18;3.40;;;2.60;;
50126;SDS011;36024;47.974;16.398;2023-12-29T10:52:45;3.67;;;3.13;;
50126;SDS011;36024;47.974;16.398;2023-12-29T10:55:13;4.83;;;3.70;;
50126;SDS011;36024;47.974;16.398;2023-12-29T10:57:40;3.40;;;3.10;;
50126;SDS011;36024;47.974;16.398;2023-12-29T11:00:07;3.90;;;2.50;;
50126;SDS011;36024;47.974;16.398;2023-12-29T11:02:35;1.87;;;1.73;;
50126;SDS011;36024;47.974;16.398;2023-12-29T11:05:05;2.80;;;2.30;;
50126;SDS011;36024;47.974;16.398;2023-12-29T11:07:34;6.10;;;4.27;;
50126;SDS011;36024;47.974;16.398;2023-12-29T11:10:07;4.53;;;2.87;;
50126;SDS011;36024;47.974;16.398;2023-12-29T11:12:35;5.23;;;4.00;;
50126;SDS011;36024;47.974;16.398;2023-12-29T11:15:04;3.40;;;2.53;;
50126;SDS011;36024;47.974;16.398;2023-12-29T11:17:33;3.40;;;2.53;;
50126;SDS011;36024;47.974;16.398;2023-12-29T11:20:02;2.53;;;2.33;;
50126;SDS011;36024;47.974;16.398;2023-12-29T11:22:30;2.50;;;1.77;;
50126;SDS011;36024;47.974;16.398;2023-12-29T11:24:58;2.27;;;2.07;;
50126;SDS011;36024;47.974;16.398;2023-12-29T11:27:28;2.30;;;1.80;;
50126;SDS011;36024;47.974;16.398;2023-12-29T11:29:59;3.77;;;2.23;;
50126;SDS011;36024;47.974;16.398;2023-12-29T11:32:35;3.70;;;2.73;;
50126;SDS011;36024;47.974;16.398;2023-12-29T11:35:12;3.70;;;3.20;;
50126;SDS011;36024;47.974;16.398;2023-12-29T11:38:00;5.80;;;4.33;;
50126;SDS011;36024;47.974;16.398;2023-12-29T11:40:39;5.60;;;4.37;;
50126;SDS011;36024;47.974;16.398;2023-12-29T11:43:13;6.17;;;4.00;;
50126;SDS011;36024;47.974;16.398;2023-12-29T11:45:43;6.37;;;4.93;;
50126;SDS011;36024;47.974;16.398;2023-12-29T11:48:11;4.60;;;3.97;;
50126;SDS011;36024;47.974;16.398;2023-12-29T11:50:39;4.03;;;3.30;;
50126;SDS011;36024;47.974;16.398;2023-12-29T11:53:07;4.07;;;3.40;;
50126;SDS011;36024;47.974;16.398;2023-12-29T11:55:37;4.33;;;2.80;;
50126;SDS011;36024;47.974;16.398;2023-12-29T11:58:26;3.67;;;2.83;;
50126;SDS011;36024;47.974;16.398;2023-12-29T12:00:56;3.43;;;3.13;;
50126;SDS011;36024;47.974;16.398;2023-12-29T12:03:24;2.60;;;2.40;;
50126;SDS011;36024;47.974;16.398;2023-12-29T12:05:53;2.73;;;2.50;;
50126;SDS011;36024;47.974;16.398;2023-12-29T12:08:30;2.40;;;2.20;;
50126;SDS011;36024;47.974;16.398;2023-12-29T12:14:01;2.50;;;2.20;;
50126;SDS011;36024;47.974;16.398;2023-12-29T12:19:19;2.40;;;1.90;;
50126;SDS011;36024;47.974;16.398;2023-12-29T12:21:47;2.83;;;2.23;;
50126;SDS011;36024;47.974;16.398;2023-12-29T12:24:16;2.67;;;2.27;;
50126;SDS011;36024;47.974;16.398;2023-12-29T12:26:45;2.40;;;2.20;;
50126;SDS011;36024;47.974;16.398;2023-12-29T12:29:13;1.93;;;1.73;;
50126;SDS011;36024;47.974;16.398;2023-12-29T12:32:01;2.40;;;2.00;;
50126;SDS011;36024;47.974;16.398;2023-12-29T12:34:30;2.20;;;2.00;;
50126;SDS011;36024;47.974;16.398;2023-12-29T12:37:03;1.83;;;1.73;;
50126;SDS011;36024;47.974;16.398;2023-12-29T12:39:42;2.40;;;1.83;;
50126;SDS011;36024;47.974;16.398;2023-12-29T12:42:09;2.00;;;1.90;;
50126;SDS011;36024;47.974;16.398;2023-12-29T12:44:40;1.87;;;1.77;;
50126;SDS011;36024;47.974;16.398;2023-12-29T12:47:09;2.10;;;1.90;;
50126;SDS011;36024;47.974;16.398;2023-12-29T12:49:42;2.40;;;2.00;;
50126;SDS011;36024;47.974;16.398;2023-12-29T12:52:09;3.20;;;1.77;;
50126;SDS011;36024;47.974;16.398;2023-12-29T12:54:36;2.13;;;1.90;;
50126;SDS011;36024;47.974;16.398;2023-12-29T12:57:03;2.70;;;2.40;;
50126;SDS011;36024;47.974;16.398;2023-12-29T12:59:30;2.30;;;2.10;;
50126;SDS011;36024;47.974;16.398;2023-12-29T13:01:59;2.33;;;2.13;;
50126;SDS011;36024;47.974;16.398;2023-12-29T13:04:26;3.73;;;3.40;;
50126;SDS011;36024;47.974;16.398;2023-12-29T13:06:53;2.93;;;2.73;;
50126;SDS011;36024;47.974;16.398;2023-12-29T13:09:20;2.70;;;2.50;;
50126;SDS011;36024;47.974;16.398;2023-12-29T13:11:47;2.03;;;1.80;;
50126;SDS011;36024;47.974;16.398;2023-12-29T13:14:23;2.17;;;1.83;;
50126;SDS011;36024;47.974;16.398;2023-12-29T13:16:51;2.97;;;2.10;;
50126;SDS011;36024;47.974;16.398;2023-12-29T13:19:24;3.53;;;2.40;;
50126;SDS011;36024;47.974;16.398;2023-12-29T13:21:55;3.33;;;2.50;;
50126;SDS011;36024;47.974;16.398;2023-12-29T13:24:23;2.70;;;2.50;;
50126;SDS011;36024;47.974;16.398;2023-12-29T13:26:54;2.63;;;2.43;;
50126;SDS011;36024;47.974;16.398;2023-12-29T13:29:22;2.67;;;2.47;;
50126;SDS011;36024;47.974;16.398;2023-12-29T13:32:07;2.60;;;2.40;;
50126;SDS011;36024;47.974;16.398;2023-12-29T13:37:36;7.33;;;5.93;;
50126;SDS011;36024;47.974;16.398;2023-12-29T13:40:14;4.33;;;3.87;;
50126;SDS011;36024;47.974;16.398;2023-12-29T13:42:45;3.63;;;3.00;;
50126;SDS011;36024;47.974;16.398;2023-12-29T13:45:14;3.60;;;3.30;;
50126;SDS011;36024;47.974;16.398;2023-12-29T13:47:42;3.30;;;3.00;;
50126;SDS011;36024;47.974;16.398;2023-12-29T13:50:09;4.57;;;4.00;;
50126;SDS011;36024;47.974;16.398;2023-12-29T13:52:37;3.87;;;3.47;;
50126;SDS011;36024;47.974;16.398;2023-12-29T13:55:04;3.80;;;3.43;;
50126;SDS011;36024;47.974;16.398;2023-12-29T13:57:33;4.30;;;3.90;;
50126;SDS011;36024;47.974;16.398;2023-12-29T14:00:17;4.83;;;4.40;;
50126;SDS011;36024;47.974;16.398;2023-12-29T14:02:44;5.30;;;4.80;;
50126;SDS011;36024;47.974;16.398;2023-12-29T14:05:18;5.33;;;4.87;;
50126;SDS011;36024;47.974;16.398;2023-12-29T14:07:48;5.60;;;5.10;;
50126;SDS011;36024;47.974;16.398;2023-12-29T14:10:37;6.07;;;5.47;;
50126;SDS011;36024;47.974;16.398;2023-12-29T14:13:07;7.30;;;6.30;;
50126;SDS011;36024;47.974;16.398;2023-12-29T14:15:35;7.43;;;6.73;;
50126;SDS011;36024;47.974;16.398;2023-12-29T14:18:28;6.17;;;5.63;;
50126;SDS011;36024;47.974;16.398;2023-12-29T14:20:59;6.03;;;5.43;;
50126;SDS011;36024;47.974;16.398;2023-12-29T14:23:27;6.50;;;5.40;;
50126;SDS011;36024;47.974;16.398;2023-12-29T14:26:01;5.70;;;5.20;;
50126;SDS011;36024;47.974;16.398;2023-12-29T14:28:29;5.27;;;4.77;;
50126;SDS011;36024;47.974;16.398;2023-12-29T14:31:02;5.60;;;5.10;;
50126;SDS011;36024;47.974;16.398;2023-12-29T14:33:29;5.60;;;5.10;;
50126;SDS011;36024;47.974;16.398;2023-12-29T14:35:56;7.97;;;5.60;;
50126;SDS011;36024;47.974;16.398;2023-12-29T14:38:23;5.80;;;5.30;;
50126;SDS011;36024;47.974;16.398;2023-12-29T14:40:51;5.67;;;5.17;;
50126;SDS011;36024;47.974;16.398;2023-12-29T14:43:17;5.50;;;5.00;;
50126;SDS011;36024;47.974;16.398;2023-12-29T14:45:44;5.37;;;4.87;;
50126;SDS011;36024;47.974;16.398;2023-12-29T14:48:11;5.53;;;5.03;;
50126;SDS011;36024;47.974;16.398;2023-12-29T14:50:38;5.67;;;4.27;;
50126;SDS011;36024;47.974;16.398;2023-12-29T14:53:05;5.50;;;5.00;;
50126;SDS011;36024;47.974;16.398;2023-12-29T14:55:32;5.50;;;5.00;;